createdAt,value
2023-04-14T00:00:51.224Z,1002.83
2023-04-14T00:01:51.274Z,1002.87
2023-04-14T00:02:51.312Z,1002.87
2023-04-14T00:03:51.452Z,1002.90
2023-04-14T00:04:51.347Z,1002.92
2023-04-14T00:05:51.282Z,1002.96
2023-04-14T00:06:51.292Z,1002.98
2023-04-14T00:07:51.307Z,1003.01
2023-04-14T00:08:51.310Z,1003.02
2023-04-14T00:09:51.329Z,1003.03
2023-04-14T00:10:51.344Z,1003.03
2023-04-14T00:11:51.353Z,1003.08
2023-04-14T00:12:51.368Z,1003.07
2023-04-14T00:13:51.377Z,1003.08
2023-04-14T00:14:51.389Z,1003.06
2023-04-14T00:15:51.401Z,1003.10
2023-04-14T00:16:51.501Z,1003.10
2023-04-14T00:17:51.455Z,1003.12
2023-04-14T00:18:51.448Z,1003.13
2023-04-14T00:19:51.457Z,1003.15
2023-04-14T00:20:51.466Z,1003.15
2023-04-14T00:21:51.474Z,1003.18
2023-04-14T00:22:51.488Z,1003.16
2023-04-14T00:23:51.499Z,1003.18
2023-04-14T00:24:51.528Z,1003.20
2023-04-14T00:25:51.529Z,1003.23
2023-04-14T00:26:51.544Z,1003.24
2023-04-14T00:27:51.556Z,1003.22
2023-04-14T00:28:51.561Z,1003.22
2023-04-14T00:29:51.572Z,1003.25
2023-04-14T00:30:51.682Z,1003.25
2023-04-14T00:31:51.597Z,1003.26
2023-04-14T00:32:51.648Z,1003.23
2023-04-14T00:33:51.626Z,1003.21
2023-04-14T00:34:51.636Z,1003.25
2023-04-14T00:35:51.646Z,1003.23
2023-04-14T00:36:51.658Z,1003.24
2023-04-14T00:37:51.670Z,1003.23
2023-04-14T00:38:51.687Z,1003.26
2023-04-14T00:39:51.694Z,1003.26
2023-04-14T00:40:51.720Z,1003.22
2023-04-14T00:41:51.726Z,1003.24
2023-04-14T00:42:51.736Z,1003.24
2023-04-14T00:43:51.750Z,1003.24
2023-04-14T00:44:51.760Z,1003.24
2023-04-14T00:45:51.817Z,1003.23
2023-04-14T00:46:51.790Z,1003.24
2023-04-14T00:47:51.829Z,1003.23
2023-04-14T00:48:51.807Z,1003.26
2023-04-14T00:49:51.821Z,1003.21
2023-04-14T00:50:51.834Z,1003.23
2023-04-14T00:51:51.853Z,1003.26
2023-04-14T00:52:51.860Z,1003.27
2023-04-14T00:53:51.870Z,1003.28
2023-04-14T00:54:51.887Z,1003.29
2023-04-14T00:55:51.897Z,1003.28
2023-04-14T00:56:51.912Z,1003.28
2023-04-14T00:57:51.920Z,1003.27
2023-04-14T00:58:51.949Z,1003.26
2023-04-14T00:59:51.949Z,1003.24
2023-04-14T01:00:51.960Z,1003.21
2023-04-14T01:01:52.124Z,1003.21
2023-04-14T01:02:52.145Z,1003.21
2023-04-14T01:03:52.185Z,1003.24
2023-04-14T01:04:54.620Z,1003.22
2023-04-14T01:05:52.030Z,1003.24
2023-04-14T01:06:52.037Z,1003.30
2023-04-14T01:07:52.048Z,1003.26
2023-04-14T01:08:52.063Z,1003.25
2023-04-14T01:09:52.081Z,1003.28
2023-04-14T01:10:52.086Z,1003.29
2023-04-14T01:11:52.099Z,1003.33
2023-04-14T01:12:52.114Z,1003.29
2023-04-14T01:13:52.137Z,1003.28
2023-04-14T01:14:52.143Z,1003.28
2023-04-14T01:15:52.202Z,1003.26
2023-04-14T01:16:52.164Z,1003.24
2023-04-14T01:17:52.203Z,1003.23
2023-04-14T01:18:52.189Z,1003.22
2023-04-14T01:19:52.201Z,1003.21
2023-04-14T01:20:52.211Z,1003.22
2023-04-14T01:21:52.229Z,1003.20
2023-04-14T01:22:52.244Z,1003.22
2023-04-14T01:23:52.252Z,1003.26
2023-04-14T01:24:52.265Z,1003.22
2023-04-14T01:25:52.277Z,1003.21
2023-04-14T01:26:52.290Z,1003.18
2023-04-14T01:27:52.320Z,1003.21
2023-04-14T01:28:52.316Z,1003.23
2023-04-14T01:29:52.326Z,1003.23
2023-04-14T01:30:52.353Z,1003.22
2023-04-14T01:31:52.517Z,1003.19
2023-04-14T01:32:52.393Z,1003.19
2023-04-14T01:33:52.380Z,1003.21
2023-04-14T01:34:52.390Z,1003.20
2023-04-14T01:35:52.408Z,1003.19
2023-04-14T01:36:52.416Z,1003.22
2023-04-14T01:37:52.461Z,1003.16
2023-04-14T01:38:52.444Z,1003.21
2023-04-14T01:39:52.460Z,1003.16
2023-04-14T01:40:52.487Z,1003.22
2023-04-14T01:41:52.493Z,1003.20
2023-04-14T01:42:52.502Z,1003.25
2023-04-14T01:43:52.512Z,1003.29
2023-04-14T01:44:52.522Z,1003.24
2023-04-14T01:45:52.576Z,1003.25
2023-04-14T01:46:52.554Z,1003.25
2023-04-14T01:47:52.601Z,1003.25
2023-04-14T01:48:52.592Z,1003.26
2023-04-14T01:49:52.581Z,1003.25
2023-04-14T01:50:52.598Z,1003.27
2023-04-14T01:51:52.620Z,1003.26
2023-04-14T01:52:52.626Z,1003.21
2023-04-14T01:53:52.635Z,1003.30
2023-04-14T01:54:52.654Z,1003.26
2023-04-14T01:55:52.671Z,1003.27
2023-04-14T01:56:52.726Z,1003.28
2023-04-14T01:57:52.701Z,1003.21
2023-04-14T01:58:52.704Z,1003.23
2023-04-14T01:59:52.712Z,1003.24
2023-04-14T02:00:52.824Z,1003.25
2023-04-14T02:01:52.781Z,1003.24
2023-04-14T02:02:52.826Z,1003.27
2023-04-14T02:03:52.968Z,1003.26
2023-04-14T02:04:52.781Z,1003.26
2023-04-14T02:05:52.790Z,1003.23
2023-04-14T02:06:52.808Z,1003.25
2023-04-14T02:07:52.813Z,1003.29
2023-04-14T02:08:52.830Z,1003.27
2023-04-14T02:09:52.842Z,1003.26
2023-04-14T02:10:52.853Z,1003.29
2023-04-14T02:11:52.881Z,1003.29
2023-04-14T02:12:52.892Z,1003.29
2023-04-14T02:13:52.898Z,1003.28
2023-04-14T02:14:52.916Z,1003.28
2023-04-14T02:15:52.942Z,1003.29
2023-04-14T02:16:52.999Z,1003.30
2023-04-14T02:17:53.062Z,1003.29
2023-04-14T02:18:52.958Z,1003.28
2023-04-14T02:19:52.969Z,1003.28
2023-04-14T02:20:53.007Z,1003.31
2023-04-14T02:21:52.994Z,1003.31
2023-04-14T02:22:53.008Z,1003.31
2023-04-14T02:23:53.017Z,1003.33
2023-04-14T02:24:53.031Z,1003.29
2023-04-14T02:25:53.055Z,1003.36
2023-04-14T02:26:53.057Z,1003.35
2023-04-14T02:27:53.085Z,1003.34
2023-04-14T02:28:53.094Z,1003.35
2023-04-14T02:29:53.098Z,1003.35
2023-04-14T02:30:53.133Z,1003.33
2023-04-14T02:31:53.122Z,1003.37
2023-04-14T02:32:53.228Z,1003.41
2023-04-14T02:33:53.150Z,1003.39
2023-04-14T02:34:53.161Z,1003.43
2023-04-14T02:35:53.178Z,1003.45
2023-04-14T02:36:53.191Z,1003.41
2023-04-14T02:37:53.199Z,1003.43
2023-04-14T02:38:53.215Z,1003.43
2023-04-14T02:39:53.227Z,1003.45
2023-04-14T02:40:53.239Z,1003.45
2023-04-14T02:41:53.253Z,1003.47
2023-04-14T02:42:53.272Z,1003.44
2023-04-14T02:43:53.284Z,1003.44
2023-04-14T02:44:53.299Z,1003.44
2023-04-14T02:45:53.342Z,1003.44
2023-04-14T02:46:53.330Z,1003.46
2023-04-14T02:47:53.374Z,1003.47
2023-04-14T02:48:53.379Z,1003.45
2023-04-14T02:49:53.366Z,1003.51
2023-04-14T02:50:53.376Z,1003.53
2023-04-14T02:51:53.392Z,1003.49
2023-04-14T02:52:53.401Z,1003.46
2023-04-14T02:53:53.415Z,1003.47
2023-04-14T02:54:53.435Z,1003.46
2023-04-14T02:55:53.441Z,1003.48
2023-04-14T02:56:53.452Z,1003.42
2023-04-14T02:57:53.468Z,1003.45
2023-04-14T02:58:53.485Z,1003.47
2023-04-14T02:59:53.496Z,1003.43
2023-04-14T03:00:53.508Z,1003.48
2023-04-14T03:01:53.567Z,1003.46
2023-04-14T03:02:53.597Z,1003.42
2023-04-14T03:03:53.616Z,1003.44
2023-04-14T03:04:53.576Z,1003.39
2023-04-14T03:05:53.574Z,1003.33
2023-04-14T03:06:53.588Z,1003.39
2023-04-14T03:07:53.602Z,1003.42
2023-04-14T03:08:53.620Z,1003.41
2023-04-14T03:09:53.634Z,1003.42
2023-04-14T03:10:53.640Z,1003.43
2023-04-14T03:11:53.654Z,1003.42
2023-04-14T03:12:53.676Z,1003.43
2023-04-14T03:13:53.698Z,1003.47
2023-04-14T03:14:53.695Z,1003.45
2023-04-14T03:15:53.736Z,1003.47
2023-04-14T03:16:53.783Z,1003.46
2023-04-14T03:17:53.775Z,1003.46
2023-04-14T03:18:53.753Z,1003.45
2023-04-14T03:19:53.776Z,1003.43
2023-04-14T03:20:53.773Z,1003.41
2023-04-14T03:21:53.794Z,1003.35
2023-04-14T03:22:53.799Z,1003.43
2023-04-14T03:23:53.814Z,1003.40
2023-04-14T03:24:53.842Z,1003.39
2023-04-14T03:25:53.835Z,1003.41
2023-04-14T03:26:53.851Z,1003.41
2023-04-14T03:27:53.865Z,1003.35
2023-04-14T03:28:53.878Z,1003.37
2023-04-14T03:29:53.899Z,1003.39
2023-04-14T03:30:53.965Z,1003.34
2023-04-14T03:31:53.921Z,1003.36
2023-04-14T03:32:53.974Z,1003.28
2023-04-14T03:33:53.944Z,1003.29
2023-04-14T03:34:53.955Z,1003.29
2023-04-14T03:35:53.974Z,1003.29
2023-04-14T03:36:53.983Z,1003.29
2023-04-14T03:37:53.997Z,1003.28
2023-04-14T03:38:54.010Z,1003.26
2023-04-14T03:39:54.027Z,1003.29
2023-04-14T03:40:54.037Z,1003.29
2023-04-14T03:41:54.046Z,1003.31
2023-04-14T03:42:54.063Z,1003.31
2023-04-14T03:43:54.086Z,1003.31
2023-04-14T03:44:54.121Z,1003.34
2023-04-14T03:45:54.111Z,1003.28
2023-04-14T03:46:54.160Z,1003.34
2023-04-14T03:47:54.162Z,1003.34
2023-04-14T03:48:54.138Z,1003.31
2023-04-14T03:49:54.154Z,1003.39
2023-04-14T03:50:54.167Z,1003.39
2023-04-14T03:51:54.181Z,1003.41
2023-04-14T03:52:54.199Z,1003.42
2023-04-14T03:53:54.478Z,1003.37
2023-04-14T03:54:54.248Z,1003.36
2023-04-14T03:55:54.230Z,1003.35
2023-04-14T03:56:54.245Z,1003.36
2023-04-14T03:57:54.259Z,1003.35
2023-04-14T03:58:54.280Z,1003.31
2023-04-14T03:59:54.287Z,1003.30
2023-04-14T04:00:54.301Z,1003.29
2023-04-14T04:01:54.364Z,1003.31
2023-04-14T04:02:54.475Z,1003.26
2023-04-14T04:03:54.394Z,1003.33
2023-04-14T04:04:54.434Z,1003.34
2023-04-14T04:05:54.390Z,1003.35
2023-04-14T04:06:54.396Z,1003.35
2023-04-14T04:07:54.396Z,1003.32
2023-04-14T04:08:54.408Z,1003.31
2023-04-14T04:09:54.417Z,1003.31
2023-04-14T04:10:54.437Z,1003.24
2023-04-14T04:11:54.447Z,1003.28
2023-04-14T04:12:54.454Z,1003.27
2023-04-14T04:13:54.468Z,1003.27
2023-04-14T04:14:54.484Z,1003.29
2023-04-14T04:15:54.495Z,1003.29
2023-04-14T04:16:54.570Z,1003.34
2023-04-14T04:17:54.572Z,1003.32
2023-04-14T04:18:54.533Z,1003.34
2023-04-14T04:19:54.552Z,1003.32
2023-04-14T04:20:54.562Z,1003.31
2023-04-14T04:21:54.572Z,1003.33
2023-04-14T04:22:54.593Z,1003.31
2023-04-14T04:23:54.619Z,1003.34
2023-04-14T04:24:54.610Z,1003.30
2023-04-14T04:25:54.627Z,1003.34
2023-04-14T04:26:54.635Z,1003.35
2023-04-14T04:27:54.648Z,1003.37
2023-04-14T04:28:54.709Z,1003.38
2023-04-14T04:29:54.677Z,1003.36
2023-04-14T04:30:54.685Z,1003.35
2023-04-14T04:31:55.353Z,1003.35
2023-04-14T04:32:54.732Z,1003.32
2023-04-14T04:33:54.726Z,1003.30
2023-04-14T04:34:54.744Z,1003.31
2023-04-14T04:35:54.758Z,1003.29
2023-04-14T04:36:54.767Z,1003.29
2023-04-14T04:37:54.785Z,1003.32
2023-04-14T04:38:54.788Z,1003.34
2023-04-14T04:39:54.804Z,1003.33
2023-04-14T04:40:54.827Z,1003.33
2023-04-14T04:41:54.833Z,1003.31
2023-04-14T04:42:54.852Z,1003.36
2023-04-14T04:43:54.868Z,1003.33
2023-04-14T04:44:54.869Z,1003.35
2023-04-14T04:45:54.948Z,1003.33
2023-04-14T04:46:54.962Z,1003.34
2023-04-14T04:47:54.937Z,1003.35
2023-04-14T04:48:54.924Z,1003.39
2023-04-14T04:49:54.935Z,1003.35
2023-04-14T04:50:54.946Z,1003.35
2023-04-14T04:51:54.960Z,1003.36
2023-04-14T04:52:54.999Z,1003.36
2023-04-14T04:53:54.986Z,1003.37
2023-04-14T04:54:55.010Z,1003.37
2023-04-14T04:55:55.016Z,1003.37
2023-04-14T04:56:55.024Z,1003.35
2023-04-14T04:57:55.037Z,1003.36
2023-04-14T04:58:55.050Z,1003.36
2023-04-14T04:59:55.062Z,1003.35
2023-04-14T05:00:55.113Z,1003.36
2023-04-14T05:01:55.200Z,1003.42
2023-04-14T05:02:55.208Z,1003.38
2023-04-14T05:03:55.154Z,1003.38
2023-04-14T05:04:55.171Z,1003.41
2023-04-14T05:05:55.143Z,1003.39
2023-04-14T05:06:55.157Z,1003.39
2023-04-14T05:07:55.170Z,1003.37
2023-04-14T05:08:55.185Z,1003.40
2023-04-14T05:09:55.195Z,1003.39
2023-04-14T05:10:55.215Z,1003.41
2023-04-14T05:11:55.227Z,1003.37
2023-04-14T05:12:55.237Z,1003.41
2023-04-14T05:13:55.253Z,1003.40
2023-04-14T05:14:55.265Z,1003.40
2023-04-14T05:15:55.340Z,1003.42
2023-04-14T05:16:55.298Z,1003.41
2023-04-14T05:17:55.340Z,1003.37
2023-04-14T05:18:55.319Z,1003.39
2023-04-14T05:19:55.334Z,1003.39
2023-04-14T05:20:55.356Z,1003.41
2023-04-14T05:21:55.357Z,1003.46
2023-04-14T05:22:55.373Z,1003.48
2023-04-14T05:23:55.387Z,1003.54
2023-04-14T05:24:55.401Z,1003.49
2023-04-14T05:25:55.413Z,1003.52
2023-04-14T05:27:12.251Z,1003.50
2023-04-14T05:27:55.455Z,1003.53
2023-04-14T05:28:55.452Z,1003.50
2023-04-14T05:29:55.475Z,1003.47
2023-04-14T05:30:55.528Z,1003.44
2023-04-14T05:31:55.494Z,1003.46
2023-04-14T05:32:55.557Z,1003.46
2023-04-14T05:33:55.521Z,1003.46
2023-04-14T05:34:55.545Z,1003.43
2023-04-14T05:35:55.556Z,1003.38
2023-04-14T05:36:55.566Z,1003.40
2023-04-14T05:37:55.577Z,1003.40
2023-04-14T05:38:55.594Z,1003.42
2023-04-14T05:39:55.611Z,1003.46
2023-04-14T05:40:55.624Z,1003.44
2023-04-14T05:41:55.640Z,1003.46
2023-04-14T05:42:57.007Z,1003.39
2023-04-14T05:43:55.678Z,1003.42
2023-04-14T05:44:55.672Z,1003.41
2023-04-14T05:45:55.686Z,1003.36
2023-04-14T05:46:55.902Z,1003.43
2023-04-14T05:47:55.753Z,1003.42
2023-04-14T05:48:55.724Z,1003.38
2023-04-14T05:49:55.741Z,1003.40
2023-04-14T05:50:55.759Z,1003.45
2023-04-14T05:51:55.768Z,1003.44
2023-04-14T05:52:55.782Z,1003.45
2023-04-14T05:53:55.795Z,1003.45
2023-04-14T05:54:55.809Z,1003.50
2023-04-14T05:55:55.825Z,1003.49
2023-04-14T05:56:55.836Z,1003.53
2023-04-14T05:57:55.854Z,1003.53
2023-04-14T05:58:55.932Z,1003.52
2023-04-14T05:59:57.686Z,1003.52
2023-04-14T06:00:55.894Z,1003.53
2023-04-14T06:01:55.969Z,1003.48
2023-04-14T06:02:56.145Z,1003.52
2023-04-14T06:03:56.196Z,1003.46
2023-04-14T06:04:56.037Z,1003.50
2023-04-14T06:05:55.965Z,1003.51
2023-04-14T06:06:55.976Z,1003.53
2023-04-14T06:07:55.988Z,1003.50
2023-04-14T06:08:56.011Z,1003.54
2023-04-14T06:09:56.017Z,1003.54
2023-04-14T06:10:56.030Z,1003.53
2023-04-14T06:11:56.044Z,1003.53
2023-04-14T06:12:56.056Z,1003.55
2023-04-14T06:13:56.077Z,1003.53
2023-04-14T06:14:56.108Z,1003.56
2023-04-14T06:15:56.132Z,1003.52
2023-04-14T06:16:56.128Z,1003.51
2023-04-14T06:17:56.212Z,1003.52
2023-04-14T06:18:56.144Z,1003.60
2023-04-14T06:19:56.157Z,1003.59
2023-04-14T06:20:56.186Z,1003.53
2023-04-14T06:21:56.189Z,1003.57
2023-04-14T06:22:56.195Z,1003.56
2023-04-14T06:23:56.213Z,1003.52
2023-04-14T06:24:56.228Z,1003.56
2023-04-14T06:25:56.242Z,1003.55
2023-04-14T06:26:56.255Z,1003.57
2023-04-14T06:27:56.265Z,1003.59
2023-04-14T06:28:56.292Z,1003.56
2023-04-14T06:29:56.303Z,1003.58
2023-04-14T06:30:56.307Z,1003.54
2023-04-14T06:31:56.384Z,1003.55
2023-04-14T06:32:56.388Z,1003.57
2023-04-14T06:33:56.364Z,1003.56
2023-04-14T06:34:56.368Z,1003.62
2023-04-14T06:35:56.380Z,1003.67
2023-04-14T06:36:56.393Z,1003.64
2023-04-14T06:37:56.409Z,1003.63
2023-04-14T06:38:56.421Z,1003.61
2023-04-14T06:39:56.436Z,1003.67
2023-04-14T06:40:56.454Z,1003.65
2023-04-14T06:41:56.464Z,1003.63
2023-04-14T06:42:56.493Z,1003.65
2023-04-14T06:43:56.495Z,1003.61
2023-04-14T06:44:56.507Z,1003.65
2023-04-14T06:45:56.538Z,1003.65
2023-04-14T06:46:57.249Z,1003.64
2023-04-14T06:47:56.567Z,1003.66
2023-04-14T06:48:56.562Z,1003.65
2023-04-14T06:49:56.578Z,1003.61
2023-04-14T06:50:56.601Z,1003.62
2023-04-14T06:51:56.610Z,1003.63
2023-04-14T06:52:56.621Z,1003.58
2023-04-14T06:53:56.634Z,1003.56
2023-04-14T06:54:56.665Z,1003.55
2023-04-14T06:55:56.664Z,1003.51
2023-04-14T06:56:56.682Z,1003.57
2023-04-14T06:57:56.699Z,1003.59
2023-04-14T06:58:56.714Z,1003.60
2023-04-14T06:59:56.725Z,1003.66
2023-04-14T07:00:56.793Z,1003.69
2023-04-14T07:01:56.918Z,1003.73
2023-04-14T07:02:56.935Z,1003.79
2023-04-14T07:03:56.779Z,1003.77
2023-04-14T07:04:56.841Z,1003.72
2023-04-14T07:05:56.808Z,1003.72
2023-04-14T07:06:56.822Z,1003.71
2023-04-14T07:07:56.839Z,1003.71
2023-04-14T07:08:56.849Z,1003.68
2023-04-14T07:09:56.951Z,1003.69
2023-04-14T07:10:56.882Z,1003.70
2023-04-14T07:11:56.897Z,1003.68
2023-04-14T07:12:56.908Z,1003.66
2023-04-14T07:13:56.927Z,1003.67
2023-04-14T07:14:56.944Z,1003.68
2023-04-14T07:15:57.012Z,1003.66
2023-04-14T07:16:56.968Z,1003.68
2023-04-14T07:17:59.814Z,1003.63
2023-04-14T07:18:57.000Z,1003.67
2023-04-14T07:19:57.019Z,1003.66
2023-04-14T07:20:57.027Z,1003.68
2023-04-14T07:21:57.044Z,1003.67
2023-04-14T07:22:57.060Z,1003.70
2023-04-14T07:23:57.076Z,1003.67
2023-04-14T07:24:57.089Z,1003.70
2023-04-14T07:25:57.136Z,1003.67
2023-04-14T07:26:57.133Z,1003.72
2023-04-14T07:28:03.232Z,1003.68
2023-04-14T07:28:57.153Z,1003.68
2023-04-14T07:29:57.167Z,1003.74
2023-04-14T07:30:57.218Z,1003.73
2023-04-14T07:31:57.195Z,1003.70
2023-04-14T07:32:57.244Z,1003.72
2023-04-14T07:33:57.233Z,1003.77
2023-04-14T07:34:58.827Z,1003.73
2023-04-14T07:36:57.270Z,1003.81
2023-04-14T07:37:57.285Z,1003.84
2023-04-14T07:38:57.324Z,1003.82
2023-04-14T07:39:57.357Z,1003.80
2023-04-14T07:40:57.334Z,1003.87
2023-04-14T07:41:57.351Z,1003.85
2023-04-14T07:42:57.362Z,1003.89
2023-04-14T07:43:57.376Z,1003.91
2023-04-14T07:44:57.395Z,1003.88
2023-04-14T07:45:57.433Z,1003.96
2023-04-14T07:46:57.450Z,1003.98
2023-04-14T07:47:57.870Z,1003.95
2023-04-14T07:48:57.461Z,1003.94
2023-04-14T07:49:57.474Z,1003.97
2023-04-14T07:50:57.486Z,1004.01
2023-04-14T07:51:57.502Z,1003.99
2023-04-14T07:52:57.518Z,1003.99
2023-04-14T07:53:57.532Z,1004.01
2023-04-14T07:54:57.546Z,1003.99
2023-04-14T07:55:57.564Z,1004.04
2023-04-14T07:56:57.614Z,1004.01
2023-04-14T07:57:57.594Z,1004.06
2023-04-14T07:58:57.662Z,1004.04
2023-04-14T07:59:57.624Z,1004.03
2023-04-14T08:00:57.684Z,1003.97
2023-04-14T08:01:57.799Z,1003.95
2023-04-14T08:02:57.812Z,1004.04
2023-04-14T08:03:57.840Z,1004.05
2023-04-14T08:04:57.736Z,1004.00
2023-04-14T08:05:57.717Z,1003.99
2023-04-14T08:06:57.733Z,1003.99
2023-04-14T08:07:57.751Z,1003.92
2023-04-14T08:08:57.760Z,1003.91
2023-04-14T08:09:57.782Z,1003.98
2023-04-14T08:10:57.802Z,1003.95
2023-04-14T08:11:57.811Z,1003.95
2023-04-14T08:12:57.821Z,1003.90
2023-04-14T08:13:57.837Z,1003.89
2023-04-14T08:14:57.849Z,1003.95
2023-04-14T08:15:57.892Z,1003.93
2023-04-14T08:16:57.880Z,1003.98
2023-04-14T08:17:57.925Z,1003.96
2023-04-14T08:18:58.241Z,1003.96
2023-04-14T08:19:57.937Z,1003.96
2023-04-14T08:20:57.941Z,1004.01
2023-04-14T08:21:57.994Z,1004.00
2023-04-14T08:22:57.971Z,1004.01
2023-04-14T08:23:57.989Z,1003.94
2023-04-14T08:24:57.999Z,1003.97
2023-04-14T08:25:58.026Z,1003.96
2023-04-14T08:26:58.044Z,1004.07
2023-04-14T08:27:58.054Z,1004.00
2023-04-14T08:28:58.107Z,1004.05
2023-04-14T08:29:58.072Z,1004.08
2023-04-14T08:30:58.087Z,1004.06
2023-04-14T08:31:58.127Z,1004.04
2023-04-14T08:32:59.193Z,1003.98
2023-04-14T08:33:58.134Z,1004.01
2023-04-14T08:35:39.191Z,1003.97
2023-04-14T08:36:00.473Z,1003.95
2023-04-14T08:36:58.185Z,1003.91
2023-04-14T08:37:58.203Z,1003.94
2023-04-14T08:38:58.548Z,1003.97
2023-04-14T08:39:58.218Z,1003.89
2023-04-14T08:40:58.234Z,1003.92
2023-04-14T08:41:58.250Z,1003.92
2023-04-14T08:42:58.287Z,1003.94
2023-04-14T08:43:58.281Z,1003.98
2023-04-14T08:44:58.290Z,1003.96
2023-04-14T08:45:58.346Z,1003.98
2023-04-14T08:46:58.322Z,1003.96
2023-04-14T08:47:58.391Z,1003.98
2023-04-14T08:48:58.458Z,1003.92
2023-04-14T08:49:58.366Z,1003.97
2023-04-14T08:50:58.381Z,1003.92
2023-04-14T08:51:58.411Z,1003.87
2023-04-14T08:52:58.410Z,1003.88
2023-04-14T08:53:58.424Z,1003.79
2023-04-14T08:54:58.446Z,1003.80
2023-04-14T08:55:58.708Z,1003.76
2023-04-14T08:56:58.469Z,1003.80
2023-04-14T08:57:58.484Z,1003.76
2023-04-14T08:58:58.498Z,1003.78
2023-04-14T08:59:58.510Z,1003.79
2023-04-14T09:00:58.551Z,1003.78
2023-04-14T09:01:58.742Z,1003.77
2023-04-14T09:02:58.677Z,1003.78
2023-04-14T09:03:58.791Z,1003.78
2023-04-14T09:04:58.721Z,1003.77
2023-04-14T09:05:58.597Z,1003.80
2023-04-14T09:06:58.617Z,1003.80
2023-04-14T09:07:58.629Z,1003.80
2023-04-14T09:08:58.643Z,1003.80
2023-04-14T09:09:58.658Z,1003.74
2023-04-14T09:10:58.673Z,1003.78
2023-04-14T09:11:58.690Z,1003.80
2023-04-14T09:12:58.724Z,1003.78
2023-04-14T09:13:58.735Z,1003.71
2023-04-14T09:14:58.735Z,1003.74
2023-04-14T09:15:58.746Z,1003.74
2023-04-14T09:16:58.788Z,1003.74
2023-04-14T09:17:58.806Z,1003.72
2023-04-14T09:19:01.514Z,1003.65
2023-04-14T09:20:37.434Z,1003.72
2023-04-14T09:21:31.280Z,1003.69
2023-04-14T09:21:58.960Z,1003.76
2023-04-14T09:22:58.857Z,1003.72
2023-04-14T09:23:59.006Z,1003.71
2023-04-14T09:24:58.896Z,1003.74
2023-04-14T09:25:58.884Z,1003.75
2023-04-14T09:26:58.913Z,1003.79
2023-04-14T09:27:58.916Z,1003.81
2023-04-14T09:28:59.103Z,1003.76
2023-04-14T09:29:58.948Z,1003.76
2023-04-14T09:30:59.000Z,1003.77
2023-04-14T09:31:59.084Z,1003.71
2023-04-14T09:32:59.052Z,1003.75
2023-04-14T09:33:59.069Z,1003.73
2023-04-14T09:34:59.011Z,1003.74
2023-04-14T09:35:59.028Z,1003.69
2023-04-14T09:36:59.051Z,1003.74
2023-04-14T09:37:59.053Z,1003.66
2023-04-14T09:38:59.074Z,1003.70
2023-04-14T09:39:59.084Z,1003.68
2023-04-14T09:40:59.101Z,1003.66
2023-04-14T09:41:59.109Z,1003.69
2023-04-14T09:42:59.125Z,1003.67
2023-04-14T09:43:59.403Z,1003.68
2023-04-14T09:44:59.163Z,1003.70
2023-04-14T09:45:59.218Z,1003.69
2023-04-14T09:46:59.186Z,1003.69
2023-04-14T09:47:59.214Z,1003.72
2023-04-14T09:48:59.227Z,1003.68
2023-04-14T09:49:59.220Z,1003.61
2023-04-14T09:50:59.245Z,1003.70
2023-04-14T09:51:59.250Z,1003.68
2023-04-14T09:52:59.262Z,1003.65
2023-04-14T09:53:59.293Z,1003.67
2023-04-14T09:54:59.289Z,1003.63
2023-04-14T09:55:59.302Z,1003.65
2023-04-14T09:56:59.317Z,1003.64
2023-04-14T09:57:59.335Z,1003.64
2023-04-14T09:58:59.742Z,1003.66
2023-04-14T09:59:59.361Z,1003.64
2023-04-14T10:00:59.416Z,1003.61
2023-04-14T10:01:59.534Z,1003.70
2023-04-14T10:02:59.432Z,1003.69
2023-04-14T10:03:59.428Z,1003.67
2023-04-14T10:04:59.470Z,1003.64
2023-04-14T10:05:59.449Z,1003.68
2023-04-14T10:06:59.473Z,1003.65
2023-04-14T10:07:59.478Z,1003.63
2023-04-14T10:08:59.948Z,1003.60
2023-04-14T10:09:59.506Z,1003.62
2023-04-14T10:10:59.514Z,1003.54
2023-04-14T10:11:59.530Z,1003.63
2023-04-14T10:12:59.547Z,1003.61
2023-04-14T10:13:59.558Z,1003.64
2023-04-14T10:14:59.572Z,1003.64
2023-04-14T10:15:59.687Z,1003.64
2023-04-14T10:16:59.599Z,1003.71
2023-04-14T10:17:59.639Z,1003.63
2023-04-14T10:18:59.928Z,1003.65
2023-04-14T10:19:59.643Z,1003.68
2023-04-14T10:20:59.661Z,1003.64
2023-04-14T10:21:59.684Z,1003.59
2023-04-14T10:22:59.685Z,1003.64
2023-04-14T10:23:59.714Z,1003.57
2023-04-14T10:24:59.712Z,1003.51
2023-04-14T10:25:59.728Z,1003.61
2023-04-14T10:26:59.759Z,1003.56
2023-04-14T10:27:59.755Z,1003.61
2023-04-14T10:28:59.910Z,1003.60
2023-04-14T10:29:59.785Z,1003.57
2023-04-14T10:30:59.800Z,1003.55
2023-04-14T10:32:00.054Z,1003.58
2023-04-14T10:32:59.844Z,1003.57
2023-04-14T10:33:59.848Z,1003.52
2023-04-14T10:34:59.859Z,1003.59
2023-04-14T10:35:59.883Z,1003.55
2023-04-14T10:36:59.892Z,1003.54
2023-04-14T10:37:59.900Z,1003.58
2023-04-14T10:39:00.218Z,1003.56
2023-04-14T10:39:59.931Z,1003.49
2023-04-14T10:40:59.940Z,1003.55
2023-04-14T10:41:59.966Z,1003.51
2023-04-14T10:42:59.976Z,1003.46
2023-04-14T10:43:59.990Z,1003.40
2023-04-14T10:44:59.997Z,1003.48
2023-04-14T10:46:00.018Z,1003.38
2023-04-14T10:47:00.210Z,1003.39
2023-04-14T10:48:00.127Z,1003.41
2023-04-14T10:49:00.282Z,1003.36
2023-04-14T10:50:00.073Z,1003.38
2023-04-14T10:51:00.119Z,1003.34
2023-04-14T10:52:00.107Z,1003.32
2023-04-14T10:53:00.140Z,1003.34
2023-04-14T10:54:00.165Z,1003.36
2023-04-14T10:55:00.151Z,1003.32
2023-04-14T10:56:00.173Z,1003.32
2023-04-14T10:57:00.191Z,1003.32
2023-04-14T10:58:00.195Z,1003.27
2023-04-14T10:59:00.280Z,1003.29
2023-04-14T11:00:00.237Z,1003.24
2023-04-14T11:01:00.272Z,1003.23
2023-04-14T11:02:00.415Z,1003.18
2023-04-14T11:03:00.405Z,1003.20
2023-04-14T11:04:00.394Z,1003.20
2023-04-14T11:05:00.288Z,1003.22
2023-04-14T11:06:00.304Z,1003.26
2023-04-14T11:07:00.313Z,1003.17
2023-04-14T11:08:02.282Z,1003.19
2023-04-14T11:09:00.596Z,1003.13
2023-04-14T11:10:00.355Z,1003.15
2023-04-14T11:11:00.377Z,1003.12
2023-04-14T11:12:00.386Z,1003.18
2023-04-14T11:13:00.397Z,1003.22
2023-04-14T11:14:00.413Z,1003.17
2023-04-14T11:15:00.426Z,1003.13
2023-04-14T11:16:00.438Z,1003.23
2023-04-14T11:17:04.047Z,1003.13
2023-04-14T11:18:00.503Z,1003.23
2023-04-14T11:19:00.604Z,1003.13
2023-04-14T11:20:00.495Z,1003.11
2023-04-14T11:21:00.508Z,1003.18
2023-04-14T11:22:00.526Z,1003.21
2023-04-14T11:23:00.535Z,1003.15
2023-04-14T11:24:00.552Z,1003.11
2023-04-14T11:25:00.570Z,1003.15
2023-04-14T11:26:00.577Z,1003.16
2023-04-14T11:27:00.588Z,1003.23
2023-04-14T11:28:00.669Z,1003.18
2023-04-14T11:29:00.742Z,1003.19
2023-04-14T11:30:00.656Z,1003.18
2023-04-14T11:31:00.644Z,1003.24
2023-04-14T11:32:00.680Z,1003.11
2023-04-14T11:33:00.758Z,1003.16
2023-04-14T11:34:00.691Z,1003.12
2023-04-14T11:35:00.698Z,1003.15
2023-04-14T11:36:00.733Z,1003.10
2023-04-14T11:37:00.727Z,1003.15
2023-04-14T11:38:00.747Z,1003.11
2023-04-14T11:39:00.972Z,1003.24
2023-04-14T11:40:00.768Z,1003.11
2023-04-14T11:41:00.777Z,1003.07
2023-04-14T11:42:00.824Z,1003.02
2023-04-14T11:43:00.833Z,1003.07
2023-04-14T11:44:00.850Z,1003.08
2023-04-14T11:45:00.831Z,1003.10
2023-04-14T11:46:00.928Z,1003.05
2023-04-14T11:47:00.867Z,1003.08
2023-04-14T11:48:01.000Z,1003.06
2023-04-14T11:49:01.143Z,1003.18
2023-04-14T11:50:00.903Z,1003.18
2023-04-14T11:51:00.914Z,1003.16
2023-04-14T11:52:00.926Z,1003.11
2023-04-14T11:53:00.953Z,1003.09
2023-04-14T11:54:00.997Z,1003.09
2023-04-14T11:55:00.965Z,1003.17
2023-04-14T11:56:01.095Z,1003.12
2023-04-14T11:57:00.992Z,1003.10
2023-04-14T11:58:01.004Z,1003.16
2023-04-14T11:59:01.327Z,1003.17
2023-04-14T12:00:01.045Z,1003.23
2023-04-14T12:01:01.047Z,1003.17
2023-04-14T12:02:01.083Z,1003.25
2023-04-14T12:03:01.184Z,1003.23
2023-04-14T12:04:01.422Z,1003.19
2023-04-14T12:05:01.269Z,1003.13
2023-04-14T12:06:01.180Z,1003.20
2023-04-14T12:07:01.124Z,1003.09